Time,TemperatureF,DewpointF,PressureIn,WindDirection,WindDirectionDegrees,WindSpeedMPH,WindSpeedGustMPH,Humidity,HourlyPrecipIn,Conditions,Clouds,dailyrainin,SoftwareType,DateUTC
2013-02-15 00:03:00,43.8,30.4,18.35,NNW,338,0.0,-999.0,59,0.00,,,0.00,Wunderground v.1.15,2013-02-15 06:03:00,
2013-02-15 00:08:00,43.8,30.4,18.35,NNW,338,0.0,-999.0,59,0.00,,,0.00,Wunderground v.1.15,2013-02-15 06:08:00,
2013-02-15 00:13:00,43.8,30.4,18.35,NNW,338,0.0,-999.0,59,0.00,,,0.00,Wunderground v.1.15,2013-02-15 06:13:00,
2013-02-15 00:18:00,43.8,30.4,18.35,NNW,338,0.0,-999.0,59,0.00,,,0.00,Wunderground v.1.15,2013-02-15 06:18:00,
2013-02-15 00:23:00,43.8,30.4,18.35,NNW,338,0.0,-999.0,59,0.00,,,0.00,Wunderground v.1.15,2013-02-15 06:23:00,
2013-02-15 00:28:00,43.8,30.4,18.35,NNW,338,0.0,-999.0,59,0.00,,,0.00,Wunderground v.1.15,2013-02-15 06:28:00,
2013-02-15 00:33:00,43.8,30.4,18.35,NNW,338,0.0,-999.0,59,0.00,,,0.00,Wunderground v.1.15,2013-02-15 06:33:00,
2013-02-15 00:38:00,43.8,30.4,18.35,NNW,338,0.0,-999.0,59,0.00,,,0.00,Wunderground v.1.15,2013-02-15 06:38:00,
2013-02-15 00:43:00,43.8,30.4,18.35,NNW,338,0.0,-999.0,59,0.00,,,0.00,Wunderground v.1.15,2013-02-15 06:43:00,
2013-02-15 00:48:00,43.2,30.2,17.88,NNW,338,0.0,-999.0,60,0.00,,,0.00,Wunderground v.1.15,2013-02-15 06:48:00,
2013-02-15 00:53:00,43.2,30.2,17.88,NNW,338,0.0,-999.0,60,0.00,,,0.00,Wunderground v.1.15,2013-02-15 06:53:00,
2013-02-15 00:58:00,43.2,30.2,17.88,NNW,338,0.0,-999.0,60,0.00,,,0.00,Wunderground v.1.15,2013-02-15 06:58:00,
2013-02-15 01:03:00,43.2,30.2,17.88,NNW,338,0.0,-999.0,60,0.00,,,0.00,Wunderground v.1.15,2013-02-15 07:03:00,
2013-02-15 01:08:00,43.2,30.2,17.88,NNW,338,0.0,-999.0,60,0.00,,,0.00,Wunderground v.1.15,2013-02-15 07:08:00,
2013-02-15 01:13:00,43.2,30.2,17.88,NNW,338,0.0,-999.0,60,0.00,,,0.00,Wunderground v.1.15,2013-02-15 07:13:00,
2013-02-15 01:18:00,42.4,29.5,17.45,NNW,338,0.0,-999.0,60,0.00,,,0.00,Wunderground v.1.15,2013-02-15 07:18:00,
2013-02-15 01:23:00,42.4,29.5,17.45,NNW,338,0.0,-999.0,60,0.00,,,0.00,Wunderground v.1.15,2013-02-15 07:23:00,
2013-02-15 01:28:00,42.4,29.5,17.45,NNW,338,0.0,-999.0,60,0.00,,,0.00,Wunderground v.1.15,2013-02-15 07:28:00,
2013-02-15 01:33:00,42.4,29.5,17.45,NNW,338,0.0,-999.0,60,0.00,,,0.00,Wunderground v.1.15,2013-02-15 07:33:00,
2013-02-15 01:38:00,42.4,29.5,17.45,NNW,338,0.0,-999.0,60,0.00,,,0.00,Wunderground v.1.15,2013-02-15 07:38:00,
2013-02-15 01:43:00,42.4,29.5,17.45,NNW,338,0.0,-999.0,60,0.00,,,0.00,Wunderground v.1.15,2013-02-15 07:43:00,
2013-02-15 01:48:00,41.6,29.5,17.45,NNW,338,0.0,-999.0,62,0.00,,,0.00,Wunderground v.1.15,2013-02-15 07:48:00,
2013-02-15 01:53:00,41.6,29.5,17.45,NNW,338,0.0,-999.0,62,0.00,,,0.00,Wunderground v.1.15,2013-02-15 07:53:00,
2013-02-15 01:58:00,41.6,29.5,17.45,NNW,338,0.0,-999.0,62,0.00,,,0.00,Wunderground v.1.15,2013-02-15 07:58:00,
2013-02-15 02:03:00,41.6,29.5,17.45,NNW,338,0.0,-999.0,62,0.00,,,0.00,Wunderground v.1.15,2013-02-15 08:03:00,
2013-02-15 02:08:00,41.6,29.5,17.45,NNW,338,0.0,-999.0,62,0.00,,,0.00,Wunderground v.1.15,2013-02-15 08:08:00,
2013-02-15 02:13:00,41.6,29.5,17.45,NNW,338,0.0,-999.0,62,0.00,,,0.00,Wunderground v.1.15,2013-02-15 08:13:00,
2013-02-15 02:18:00,40.9,28.9,17.42,NNW,338,0.0,-999.0,62,0.00,,,0.00,Wunderground v.1.15,2013-02-15 08:18:00,
2013-02-15 02:23:00,40.9,28.9,17.42,NNW,338,0.0,-999.0,62,0.00,,,0.00,Wunderground v.1.15,2013-02-15 08:23:00,
2013-02-15 02:28:00,40.9,28.9,17.42,NNW,338,0.0,-999.0,62,0.00,,,0.00,Wunderground v.1.15,2013-02-15 08:28:00,
2013-02-15 02:33:00,40.9,28.9,17.42,NNW,338,0.0,-999.0,62,0.00,,,0.00,Wunderground v.1.15,2013-02-15 08:33:00,
2013-02-15 02:38:00,40.9,28.9,17.42,NNW,338,0.0,-999.0,62,0.00,,,0.00,Wunderground v.1.15,2013-02-15 08:38:00,
2013-02-15 02:43:00,40.9,28.9,17.42,NNW,338,0.0,-999.0,62,0.00,,,0.00,Wunderground v.1.15,2013-02-15 08:43:00,
2013-02-15 02:48:00,39.7,28.1,17.42,NNW,338,0.0,-999.0,63,0.00,,,0.00,Wunderground v.1.15,2013-02-15 08:48:00,
2013-02-15 02:53:00,39.7,28.1,17.42,NNW,338,0.0,-999.0,63,0.00,,,0.00,Wunderground v.1.15,2013-02-15 08:53:00,
2013-02-15 02:58:00,39.7,28.1,17.42,NNW,338,0.0,-999.0,63,0.00,,,0.00,Wunderground v.1.15,2013-02-15 08:58:00,
2013-02-15 03:03:00,39.7,28.1,17.42,NNW,338,0.0,-999.0,63,0.00,,,0.00,Wunderground v.1.15,2013-02-15 09:03:00,
2013-02-15 03:08:00,39.7,28.1,17.42,NNW,338,0.0,-999.0,63,0.00,,,0.00,Wunderground v.1.15,2013-02-15 09:08:00,
2013-02-15 03:13:00,39.7,28.1,17.42,NNW,338,0.0,-999.0,63,0.00,,,0.00,Wunderground v.1.15,2013-02-15 09:13:00,
2013-02-15 03:18:00,39.1,27.2,17.42,NNW,338,0.0,-999.0,62,0.00,,,0.00,Wunderground v.1.15,2013-02-15 09:18:00,
2013-02-15 03:23:00,39.1,27.2,17.42,NNW,338,0.0,-999.0,62,0.00,,,0.00,Wunderground v.1.15,2013-02-15 09:23:00,
2013-02-15 03:28:00,39.1,27.2,17.42,NNW,338,0.0,-999.0,62,0.00,,,0.00,Wunderground v.1.15,2013-02-15 09:28:00,
2013-02-15 03:33:00,39.1,27.2,17.42,NNW,338,0.0,-999.0,62,0.00,,,0.00,Wunderground v.1.15,2013-02-15 09:33:00,
2013-02-15 03:38:00,39.1,27.2,17.42,NNW,338,0.0,-999.0,62,0.00,,,0.00,Wunderground v.1.15,2013-02-15 09:38:00,
2013-02-15 03:43:00,39.1,27.2,17.42,NNW,338,0.0,-999.0,62,0.00,,,0.00,Wunderground v.1.15,2013-02-15 09:43:00,
2013-02-15 03:48:00,38.1,27.0,16.69,NNW,338,0.0,-999.0,64,0.00,,,0.00,Wunderground v.1.15,2013-02-15 09:48:00,
2013-02-15 03:53:00,38.1,27.0,16.69,NNW,338,0.0,-999.0,64,0.00,,,0.00,Wunderground v.1.15,2013-02-15 09:53:00,
2013-02-15 03:58:00,38.1,27.0,16.69,NNW,338,0.0,-999.0,64,0.00,,,0.00,Wunderground v.1.15,2013-02-15 09:58:00,
2013-02-15 04:03:00,38.1,27.0,16.69,NNW,338,0.0,-999.0,64,0.00,,,0.00,Wunderground v.1.15,2013-02-15 10:03:00,
2013-02-15 04:08:00,38.1,27.0,16.69,NNW,338,0.0,-999.0,64,0.00,,,0.00,Wunderground v.1.15,2013-02-15 10:08:00,
2013-02-15 04:13:00,38.1,27.0,16.69,NNW,338,0.0,-999.0,64,0.00,,,0.00,Wunderground v.1.15,2013-02-15 10:13:00,
2013-02-15 04:18:00,36.8,26.1,16.69,NNW,338,0.0,-999.0,65,0.00,,,0.00,Wunderground v.1.15,2013-02-15 10:18:00,
2013-02-15 04:23:00,36.8,26.1,16.69,NNW,338,0.0,-999.0,65,0.00,,,0.00,Wunderground v.1.15,2013-02-15 10:23:00,
2013-02-15 04:28:00,36.8,26.1,16.69,NNW,338,0.0,-999.0,65,0.00,,,0.00,Wunderground v.1.15,2013-02-15 10:28:00,
2013-02-15 04:33:00,36.8,26.1,16.69,NNW,338,0.0,-999.0,65,0.00,,,0.00,Wunderground v.1.15,2013-02-15 10:33:00,
2013-02-15 04:38:00,36.8,26.1,16.69,NNW,338,0.0,-999.0,65,0.00,,,0.00,Wunderground v.1.15,2013-02-15 10:38:00,
2013-02-15 04:43:00,36.8,26.1,16.69,NNW,338,0.0,-999.0,65,0.00,,,0.00,Wunderground v.1.15,2013-02-15 10:43:00,
2013-02-15 04:48:00,35.5,25.3,16.69,NNW,338,0.0,-999.0,66,0.00,,,0.00,Wunderground v.1.15,2013-02-15 10:48:00,
2013-02-15 04:53:00,35.5,25.3,16.69,NNW,338,0.0,-999.0,66,0.00,,,0.00,Wunderground v.1.15,2013-02-15 10:53:00,
2013-02-15 04:58:00,35.5,25.3,16.69,NNW,338,0.0,-999.0,66,0.00,,,0.00,Wunderground v.1.15,2013-02-15 10:58:00,
2013-02-15 05:03:00,35.5,25.3,16.69,NNW,338,0.0,-999.0,66,0.00,,,0.00,Wunderground v.1.15,2013-02-15 11:03:00,
2013-02-15 05:08:00,35.5,25.3,16.69,NNW,338,0.0,-999.0,66,0.00,,,0.00,Wunderground v.1.15,2013-02-15 11:08:00,
2013-02-15 05:13:00,35.5,25.3,16.69,NNW,338,0.0,-999.0,66,0.00,,,0.00,Wunderground v.1.15,2013-02-15 11:13:00,
2013-02-15 05:18:00,34.3,24.8,17.62,NNW,338,0.0,-999.0,68,0.00,,,0.00,Wunderground v.1.15,2013-02-15 11:18:00,
2013-02-15 05:23:00,34.3,24.8,17.62,NNW,338,0.0,-999.0,68,0.00,,,0.00,Wunderground v.1.15,2013-02-15 11:23:00,
2013-02-15 05:28:00,34.3,24.8,17.62,NNW,338,0.0,-999.0,68,0.00,,,0.00,Wunderground v.1.15,2013-02-15 11:28:00,
2013-02-15 05:33:00,34.3,24.8,17.62,NNW,338,0.0,-999.0,68,0.00,,,0.00,Wunderground v.1.15,2013-02-15 11:33:00,
2013-02-15 05:38:00,34.3,24.8,17.62,NNW,338,0.0,-999.0,68,0.00,,,0.00,Wunderground v.1.15,2013-02-15 11:38:00,
2013-02-15 05:43:00,34.3,24.8,17.62,NNW,338,0.0,-999.0,68,0.00,,,0.00,Wunderground v.1.15,2013-02-15 11:43:00,
2013-02-15 05:48:00,32.9,24.5,17.62,NNW,338,0.0,-999.0,71,0.00,,,0.00,Wunderground v.1.15,2013-02-15 11:48:00,
2013-02-15 05:53:00,32.9,24.5,17.62,NNW,338,0.0,-999.0,71,0.00,,,0.00,Wunderground v.1.15,2013-02-15 11:53:00,
2013-02-15 05:58:00,32.9,24.5,17.62,NNW,338,0.0,-999.0,71,0.00,,,0.00,Wunderground v.1.15,2013-02-15 11:58:00,
2013-02-15 06:03:00,32.9,24.5,17.62,NNW,338,0.0,-999.0,71,0.00,,,0.00,Wunderground v.1.15,2013-02-15 12:03:00,
2013-02-15 06:08:00,32.9,24.5,17.62,NNW,338,0.0,-999.0,71,0.00,,,0.00,Wunderground v.1.15,2013-02-15 12:08:00,
2013-02-15 06:13:00,32.9,24.5,17.62,NNW,338,0.0,-999.0,71,0.00,,,0.00,Wunderground v.1.15,2013-02-15 12:13:00,
2013-02-15 06:18:00,31.9,24.2,17.62,NNW,338,0.0,-999.0,73,0.00,,,0.00,Wunderground v.1.15,2013-02-15 12:18:00,
2013-02-15 06:23:00,31.9,24.2,17.62,NNW,338,0.0,-999.0,73,0.00,,,0.00,Wunderground v.1.15,2013-02-15 12:23:00,
2013-02-15 06:28:00,31.9,24.2,17.62,NNW,338,0.0,-999.0,73,0.00,,,0.00,Wunderground v.1.15,2013-02-15 12:28:00,
2013-02-15 06:33:00,31.9,24.2,17.62,NNW,338,0.0,-999.0,73,0.00,,,0.00,Wunderground v.1.15,2013-02-15 12:33:00,
2013-02-15 06:38:00,31.9,24.2,17.62,NNW,338,0.0,-999.0,73,0.00,,,0.00,Wunderground v.1.15,2013-02-15 12:38:00,
2013-02-15 06:43:00,31.9,24.2,17.62,NNW,338,0.0,-999.0,73,0.00,,,0.00,Wunderground v.1.15,2013-02-15 12:43:00,
2013-02-15 06:48:00,31.6,24.9,17.62,NNW,338,0.0,-999.0,76,0.00,,,0.00,Wunderground v.1.15,2013-02-15 12:48:00,
2013-02-15 06:53:00,31.6,24.9,17.62,NNW,338,0.0,-999.0,76,0.00,,,0.00,Wunderground v.1.15,2013-02-15 12:53:00,
2013-02-15 06:58:00,31.6,24.9,17.62,NNW,338,0.0,-999.0,76,0.00,,,0.00,Wunderground v.1.15,2013-02-15 12:58:00,
2013-02-15 07:03:00,31.6,24.9,17.62,NNW,338,0.0,-999.0,76,0.00,,,0.00,Wunderground v.1.15,2013-02-15 13:03:00,
2013-02-15 07:08:00,31.6,24.9,17.62,NNW,338,0.0,-999.0,76,0.00,,,0.00,Wunderground v.1.15,2013-02-15 13:08:00,
2013-02-15 07:13:00,31.6,24.9,17.62,NNW,338,0.0,-999.0,76,0.00,,,0.00,Wunderground v.1.15,2013-02-15 13:13:00,
2013-02-15 07:18:00,31.6,25.2,17.62,NNW,338,0.0,-999.0,77,0.00,,,0.00,Wunderground v.1.15,2013-02-15 13:18:00,
2013-02-15 07:23:00,31.6,25.2,17.62,NNW,338,0.0,-999.0,77,0.00,,,0.00,Wunderground v.1.15,2013-02-15 13:23:00,
2013-02-15 07:28:00,31.6,25.2,17.62,NNW,338,0.0,-999.0,77,0.00,,,0.00,Wunderground v.1.15,2013-02-15 13:28:00,
2013-02-15 07:33:00,31.6,25.2,17.62,NNW,338,0.0,-999.0,77,0.00,,,0.00,Wunderground v.1.15,2013-02-15 13:33:00,
2013-02-15 07:38:00,31.6,25.2,17.62,NNW,338,0.0,-999.0,77,0.00,,,0.00,Wunderground v.1.15,2013-02-15 13:38:00,
2013-02-15 07:43:00,31.6,25.2,17.62,NNW,338,0.0,-999.0,77,0.00,,,0.00,Wunderground v.1.15,2013-02-15 13:43:00,
2013-02-15 07:48:00,31.6,25.5,17.62,NNW,338,0.0,-999.0,78,0.00,,,0.00,Wunderground v.1.15,2013-02-15 13:48:00,
2013-02-15 07:53:00,31.6,25.5,17.62,NNW,338,0.0,-999.0,78,0.00,,,0.00,Wunderground v.1.15,2013-02-15 13:53:00,
2013-02-15 07:58:00,31.6,25.5,17.62,NNW,338,0.0,-999.0,78,0.00,,,0.00,Wunderground v.1.15,2013-02-15 13:58:00,
2013-02-15 08:03:00,31.6,25.5,17.62,NNW,338,0.0,-999.0,78,0.00,,,0.00,Wunderground v.1.15,2013-02-15 14:03:00,
2013-02-15 08:08:00,31.6,25.5,17.62,NNW,338,0.0,-999.0,78,0.00,,,0.00,Wunderground v.1.15,2013-02-15 14:08:00,
2013-02-15 08:13:00,31.6,25.5,17.62,NNW,338,0.0,-999.0,78,0.00,,,0.00,Wunderground v.1.15,2013-02-15 14:13:00,
2013-02-15 08:18:00,31.8,25.7,17.62,NNW,338,0.0,-999.0,78,0.00,,,0.00,Wunderground v.1.15,2013-02-15 14:18:00,
2013-02-15 08:23:00,31.8,25.7,17.62,NNW,338,0.0,-999.0,78,0.00,,,0.00,Wunderground v.1.15,2013-02-15 14:23:00,
2013-02-15 08:28:00,31.8,25.7,17.62,NNW,338,0.0,-999.0,78,0.00,,,0.00,Wunderground v.1.15,2013-02-15 14:28:00,
2013-02-15 08:33:00,31.8,25.7,17.62,NNW,338,0.0,-999.0,78,0.00,,,0.00,Wunderground v.1.15,2013-02-15 14:33:00,
2013-02-15 08:38:00,31.8,25.7,17.62,NNW,338,0.0,-999.0,78,0.00,,,0.00,Wunderground v.1.15,2013-02-15 14:38:00,
2013-02-15 08:43:00,31.8,25.7,17.62,NNW,338,0.0,-999.0,78,0.00,,,0.00,Wunderground v.1.15,2013-02-15 14:43:00,
2013-02-15 08:48:00,32.1,26.0,17.62,NNW,338,0.0,-999.0,78,0.00,,,0.00,Wunderground v.1.15,2013-02-15 14:48:00,
2013-02-15 08:53:00,32.1,26.0,17.62,NNW,338,0.0,-999.0,78,0.00,,,0.00,Wunderground v.1.15,2013-02-15 14:53:00,
2013-02-15 08:58:00,32.1,26.0,17.62,NNW,338,0.0,-999.0,78,0.00,,,0.00,Wunderground v.1.15,2013-02-15 14:58:00,
2013-02-15 09:03:00,32.1,26.0,17.62,NNW,338,0.0,-999.0,78,0.00,,,0.00,Wunderground v.1.15,2013-02-15 15:03:00,
2013-02-15 09:08:00,32.1,26.0,17.62,NNW,338,0.0,-999.0,78,0.00,,,0.00,Wunderground v.1.15,2013-02-15 15:08:00,
2013-02-15 09:13:00,32.1,26.0,17.62,NNW,338,0.0,-999.0,78,0.00,,,0.00,Wunderground v.1.15,2013-02-15 15:13:00,
2013-02-15 09:18:00,32.8,26.4,17.62,NNW,338,0.0,-999.0,77,0.00,,,0.00,Wunderground v.1.15,2013-02-15 15:18:00,
2013-02-15 09:23:00,32.8,26.4,17.62,NNW,338,0.0,-999.0,77,0.00,,,0.00,Wunderground v.1.15,2013-02-15 15:23:00,
2013-02-15 09:28:00,32.8,26.4,17.62,NNW,338,0.0,-999.0,77,0.00,,,0.00,Wunderground v.1.15,2013-02-15 15:28:00,
2013-02-15 09:33:00,32.8,26.4,17.62,NNW,338,0.0,-999.0,77,0.00,,,0.00,Wunderground v.1.15,2013-02-15 15:33:00,
2013-02-15 09:38:00,32.8,26.4,17.62,NNW,338,0.0,-999.0,77,0.00,,,0.00,Wunderground v.1.15,2013-02-15 15:38:00,
2013-02-15 09:43:00,32.8,26.4,17.62,NNW,338,0.0,-999.0,77,0.00,,,0.00,Wunderground v.1.15,2013-02-15 15:43:00,
2013-02-15 09:48:00,34.4,27.0,17.62,NNW,338,0.0,-999.0,74,0.00,,,0.00,Wunderground v.1.15,2013-02-15 15:48:00,
2013-02-15 09:53:00,34.4,27.0,17.62,NNW,338,0.0,-999.0,74,0.00,,,0.00,Wunderground v.1.15,2013-02-15 15:53:00,
2013-02-15 09:58:00,34.4,27.0,17.62,NNW,338,0.0,-999.0,74,0.00,,,0.00,Wunderground v.1.15,2013-02-15 15:58:00,
2013-02-15 10:03:00,34.4,27.0,17.62,NNW,338,0.0,-999.0,74,0.00,,,0.00,Wunderground v.1.15,2013-02-15 16:03:00,
2013-02-15 10:08:00,34.4,27.0,17.62,NNW,338,0.0,-999.0,74,0.00,,,0.00,Wunderground v.1.15,2013-02-15 16:08:00,
2013-02-15 10:13:00,34.4,27.0,17.62,NNW,338,0.0,-999.0,74,0.00,,,0.00,Wunderground v.1.15,2013-02-15 16:13:00,
2013-02-15 10:18:00,37.3,27.3,17.62,NNW,338,0.0,-999.0,67,0.00,,,0.00,Wunderground v.1.15,2013-02-15 16:18:00,
2013-02-15 10:23:00,37.3,27.3,17.62,NNW,338,0.0,-999.0,67,0.00,,,0.00,Wunderground v.1.15,2013-02-15 16:23:00,
2013-02-15 10:28:00,37.3,27.3,17.62,NNW,338,0.0,-999.0,67,0.00,,,0.00,Wunderground v.1.15,2013-02-15 16:28:00,
2013-02-15 10:33:00,37.3,27.3,17.62,NNW,338,0.0,-999.0,67,0.00,,,0.00,Wunderground v.1.15,2013-02-15 16:33:00,
2013-02-15 10:38:00,37.3,27.3,17.62,NNW,338,0.0,-999.0,67,0.00,,,0.00,Wunderground v.1.15,2013-02-15 16:38:00,
2013-02-15 10:43:00,37.3,27.3,17.62,NNW,338,0.0,-999.0,67,0.00,,,0.00,Wunderground v.1.15,2013-02-15 16:43:00,
2013-02-15 10:48:00,38.9,27.4,17.62,NNW,338,0.0,-999.0,63,0.00,,,0.00,Wunderground v.1.15,2013-02-15 16:48:00,
2013-02-15 10:53:00,38.9,27.4,17.62,NNW,338,0.0,-999.0,63,0.00,,,0.00,Wunderground v.1.15,2013-02-15 16:53:00,
2013-02-15 10:58:00,38.9,27.4,17.62,NNW,338,0.0,-999.0,63,0.00,,,0.00,Wunderground v.1.15,2013-02-15 16:58:00,
2013-02-15 11:03:00,38.9,27.4,17.62,NNW,338,0.0,-999.0,63,0.00,,,0.00,Wunderground v.1.15,2013-02-15 17:03:00,
2013-02-15 11:08:00,38.9,27.4,17.62,NNW,338,0.0,-999.0,63,0.00,,,0.00,Wunderground v.1.15,2013-02-15 17:08:00,
2013-02-15 11:13:00,38.9,27.4,17.62,NNW,338,0.0,-999.0,63,0.00,,,0.00,Wunderground v.1.15,2013-02-15 17:13:00,
2013-02-15 11:18:00,40.0,26.0,17.62,NNW,338,1.0,-999.0,57,0.00,,,0.00,Wunderground v.1.15,2013-02-15 17:18:00,
2013-02-15 11:23:00,40.0,26.0,17.62,NNW,338,1.0,-999.0,57,0.00,,,0.00,Wunderground v.1.15,2013-02-15 17:23:00,
2013-02-15 11:28:00,40.0,26.0,17.62,NNW,338,1.0,-999.0,57,0.00,,,0.00,Wunderground v.1.15,2013-02-15 17:28:00,
2013-02-15 11:37:00,41.0,26.5,17.62,NNW,348,3.0,3.0,56,0.00,,,0.00,Wunderground v.1.15,2013-02-15 17:37:00,